Time;durP1;ratioP1;P1;durP2;ratioP2;P2;SDS_P1;SDS_P2;PMS_P1;PMS_P2;Temp;Humidity;BMP_temperature;BMP_pressure;BME280_temperature;BME280_humidity;BME280_pressure;Samples;Min_cycle;Max_cycle;Signal;HPM_P1;HPM_P2
2022/04/10 00:00:45;;;;;;;6.40;6.10;;;;;;;7.71;94.81;99846.19;4997908;28;20037;-69
2022/04/10 00:03:10;;;;;;;6.70;6.40;;;;;;;7.68;95.24;99867.69;4992651;28;20022;-68
2022/04/10 00:05:36;;;;;;;6.90;6.60;;;;;;;7.56;95.97;99871.69;5010724;28;20436;-68
2022/04/10 00:08:02;;;;;;;6.97;6.68;;;;;;;7.54;95.59;99878.97;4996954;28;20117;-68
2022/04/10 00:10:28;;;;;;;6.50;6.20;;;;;;;7.64;96.34;99869.84;4990530;28;20121;-68
2022/04/10 00:12:55;;;;;;;6.65;6.35;;;;;;;7.40;96.29;99869.94;4990738;28;20038;-67
2022/04/10 00:15:21;;;;;;;6.25;5.95;;;;;;;7.42;98.36;99874.06;4995311;28;20445;-68
2022/04/10 00:17:48;;;;;;;6.65;6.35;;;;;;;7.32;98.90;99857.59;5006575;28;20026;-68
2022/04/10 00:20:14;;;;;;;6.53;6.22;;;;;;;7.28;99.21;99873.94;4994211;28;20033;-67
2022/04/10 00:22:45;;;;;;;6.65;6.35;;;;;;;7.25;100.00;99877.72;4994797;28;20034;-67
2022/04/10 00:25:14;;;;;;;6.65;6.35;;;;;;;7.29;100.00;99879.03;4992042;28;20022;-67
2022/04/10 00:27:40;;;;;;;6.80;6.50;;;;;;;7.21;100.00;99873.78;4991927;28;20038;-67
2022/04/10 00:30:08;;;;;;;6.47;6.18;;;;;;;7.16;100.00;99868.19;4993574;28;20056;-67
2022/04/10 00:32:34;;;;;;;6.60;6.30;;;;;;;6.99;100.00;99874.50;4996555;28;20800;-67
2022/04/10 00:34:59;;;;;;;6.70;6.40;;;;;;;7.05;100.00;99866.75;5008096;28;20069;-67
2022/04/10 00:37:27;;;;;;;6.80;6.50;;;;;;;6.99;100.00;99869.22;5008079;28;20034;-66
2022/04/10 00:39:53;;;;;;;7.00;6.70;;;;;;;6.83;100.00;99873.53;5010597;28;20030;-67
2022/04/10 00:42:19;;;;;;;6.47;6.18;;;;;;;6.80;100.00;99875.66;5010662;28;20040;-67
2022/04/10 00:44:45;;;;;;;6.88;6.57;;;;;;;6.76;100.00;99861.19;5011211;28;20030;-67
2022/04/10 00:47:10;;;;;;;7.68;7.30;;;;;;;6.66;100.00;99856.06;5009428;28;20022;-67
2022/04/10 00:49:37;;;;;;;6.30;6.00;;;;;;;6.78;100.00;99861.84;5003140;28;20502;-67
2022/04/10 00:52:06;;;;;;;6.70;6.40;;;;;;;6.66;100.00;99866.63;5009176;28;20486;-67
2022/04/10 00:54:34;;;;;;;6.70;6.40;;;;;;;6.62;100.00;99870.59;4991403;28;20153;-67
2022/04/10 00:57:02;;;;;;;6.32;6.03;;;;;;;6.57;100.00;99859.72;4990844;28;20031;-67
2022/04/10 00:59:29;;;;;;;6.35;6.05;;;;;;;6.61;100.00;99872.41;4991448;28;20055;-67
2022/04/10 01:01:55;;;;;;;6.35;6.05;;;;;;;6.59;100.00;99874.34;5022862;28;20097;-67
2022/04/10 01:04:21;;;;;;;6.22;5.93;;;;;;;6.62;100.00;99881.94;4991383;28;20058;-67
2022/04/10 01:06:48;;;;;;;6.50;6.20;;;;;;;6.50;100.00;99882.44;4996779;28;20660;-67
2022/04/10 01:09:15;;;;;;;6.40;6.10;;;;;;;6.50;100.00;99883.25;5008715;28;20021;-66
2022/04/10 01:11:42;;;;;;;6.72;6.43;;;;;;;6.52;100.00;99889.16;5006779;28;20015;-67
2022/04/10 01:14:12;;;;;;;7.07;6.75;;;;;;;6.60;100.00;99893.63;4991244;28;20057;-68
2022/04/10 01:16:38;;;;;;;7.53;7.13;;;;;;;6.53;100.00;99890.81;4989917;28;20030;-67
2022/04/10 01:19:05;;;;;;;6.80;6.50;;;;;;;6.50;100.00;99888.53;4991041;28;20026;-68
2022/04/10 01:21:39;;;;;;;6.57;6.28;;;;;;;6.46;100.00;99891.63;4995241;28;20104;-67
2022/04/10 01:24:05;;;;;;;6.45;6.15;;;;;;;6.40;100.00;99895.78;4996603;28;20030;-67
2022/04/10 01:26:32;;;;;;;7.28;6.88;;;;;;;6.43;100.00;99911.25;4991470;28;20035;-68
2022/04/10 01:29:12;;;;;;;6.80;6.50;;;;;;;6.39;100.00;99917.84;5010811;28;20477;-67
2022/04/10 01:31:43;;;;;;;6.50;6.20;;;;;;;6.44;100.00;99917.31;5007064;28;20462;-66
2022/04/10 01:34:13;;;;;;;6.50;6.20;;;;;;;6.43;100.00;99921.78;4992941;28;20029;-67
2022/04/10 01:36:38;;;;;;;6.28;5.97;;;;;;;6.45;100.00;99921.59;4988920;28;20053;-67
2022/04/10 01:39:06;;;;;;;6.30;6.00;;;;;;;6.47;100.00;99925.75;4997931;28;20058;-67
2022/04/10 01:41:34;;;;;;;6.35;6.05;;;;;;;6.45;100.00;99930.34;5009383;28;20025;-67
2022/04/10 01:44:00;;;;;;;6.10;5.80;;;;;;;6.35;100.00;99919.97;5010004;28;20438;-67
2022/04/10 01:46:28;;;;;;;6.45;6.15;;;;;;;6.40;100.00;99918.66;4995438;28;20081;-67
2022/04/10 01:48:54;;;;;;;6.40;6.10;;;;;;;6.39;100.00;99915.19;4992763;28;20030;-67
2022/04/10 01:51:20;;;;;;;6.05;5.78;;;;;;;6.42;100.00;99916.69;4994197;28;20031;-68
2022/04/10 01:53:45;;;;;;;6.70;6.40;;;;;;;6.45;100.00;99918.97;5000834;28;20031;-68
2022/04/10 01:56:11;;;;;;;6.50;6.20;;;;;;;6.33;100.00;99914.03;5000866;28;20117;-68
2022/04/10 01:58:40;;;;;;;6.40;6.10;;;;;;;6.40;100.00;99916.03;5013070;28;20050;-67
2022/04/10 02:01:08;;;;;;;7.03;6.72;;;;;;;6.40;100.00;99918.66;5002619;28;20105;-67
2022/04/10 02:03:34;;;;;;;6.30;6.00;;;;;;;6.34;100.00;99913.03;5014126;28;20044;-66
2022/04/10 02:06:00;;;;;;;6.35;6.05;;;;;;;6.40;100.00;99921.28;5014762;28;20057;-67
2022/04/10 02:08:28;;;;;;;6.43;6.13;;;;;;;6.47;100.00;99925.75;4999062;28;20034;-67
2022/04/10 02:10:54;;;;;;;6.10;5.80;;;;;;;6.37;100.00;99917.16;4995076;28;20081;-67
2022/04/10 02:13:19;;;;;;;5.90;5.70;;;;;;;6.49;100.00;99922.94;4993861;28;20437;-67
2022/04/10 02:15:46;;;;;;;6.30;6.00;;;;;;;6.47;100.00;99923.13;5008956;28;20068;-67
2022/04/10 02:18:11;;;;;;;6.72;6.43;;;;;;;6.45;100.00;99918.97;5009870;28;20686;-67
2022/04/10 02:20:37;;;;;;;6.93;6.63;;;;;;;6.47;100.00;99924.94;5045420;28;20038;-67
2022/04/10 02:23:02;;;;;;;7.28;6.88;;;;;;;6.37;100.00;99931.16;5009606;28;20014;-67
2022/04/10 02:25:28;;;;;;;6.40;6.10;;;;;;;6.43;100.00;99923.59;4992677;28;20122;-67
2022/04/10 02:27:53;;;;;;;7.07;6.72;;;;;;;6.44;100.00;99933.13;4992424;28;20018;-68
2022/04/10 02:30:19;;;;;;;6.80;6.50;;;;;;;6.36;100.00;99928.69;5006292;28;20035;-67
2022/04/10 02:32:45;;;;;;;6.57;6.28;;;;;;;6.41;100.00;99930.84;5005818;28;20045;-68
2022/04/10 02:35:11;;;;;;;6.60;6.30;;;;;;;6.33;100.00;99926.38;5004359;28;20625;-68
2022/04/10 02:37:37;;;;;;;6.65;6.35;;;;;;;6.41;100.00;99926.38;4993443;28;20477;-67
2022/04/10 02:40:04;;;;;;;6.50;6.20;;;;;;;6.40;100.00;99935.28;4993558;28;20033;-67
2022/04/10 02:42:33;;;;;;;6.88;6.57;;;;;;;6.29;100.00;99943.47;4993605;28;20022;-67
2022/04/10 02:44:59;;;;;;;6.45;6.15;;;;;;;6.24;100.00;99938.72;4992982;28;20026;-69
2022/04/10 02:47:24;;;;;;;6.78;6.47;;;;;;;6.30;100.00;99938.03;5004567;28;20045;-67
2022/04/10 02:49:50;;;;;;;6.40;6.10;;;;;;;6.29;100.00;99940.84;4992392;28;20034;-68
2022/04/10 02:52:16;;;;;;;6.50;6.20;;;;;;;6.26;100.00;99944.63;5001085;28;20029;-68
2022/04/10 02:54:42;;;;;;;6.60;6.30;;;;;;;6.25;100.00;99945.63;4994214;28;20484;-69
2022/04/10 02:57:07;;;;;;;6.20;5.90;;;;;;;6.31;100.00;99944.13;4993165;28;20030;-68
2022/04/10 02:59:34;;;;;;;6.18;5.88;;;;;;;6.29;100.00;99940.84;4994018;28;20046;-68
2022/04/10 03:01:59;;;;;;;6.47;6.18;;;;;;;6.24;100.00;99948.41;4995820;28;20026;-68
2022/04/10 03:04:25;;;;;;;6.78;6.47;;;;;;;6.33;100.00;99958.00;5001899;28;20037;-68
2022/04/10 03:06:51;;;;;;;6.75;6.45;;;;;;;6.25;100.00;99953.53;4993266;28;20022;-68
2022/04/10 03:09:17;;;;;;;6.35;6.05;;;;;;;6.29;100.00;99954.84;4992902;28;20117;-68
2022/04/10 03:11:43;;;;;;;6.55;6.25;;;;;;;6.26;100.00;99946.44;4993831;28;20394;-68
2022/04/10 03:14:08;;;;;;;6.40;6.10;;;;;;;6.26;100.00;99935.91;4993640;28;20076;-68
2022/04/10 03:16:34;;;;;;;6.20;5.90;;;;;;;6.22;100.00;99929.31;4993808;28;20022;-68
2022/04/10 03:19:00;;;;;;;6.43;6.13;;;;;;;6.24;100.00;99916.78;5003335;28;20038;-68
2022/04/10 03:21:25;;;;;;;6.63;6.32;;;;;;;6.13;100.00;99925.00;4995303;28;20123;-68
2022/04/10 03:23:51;;;;;;;6.80;6.50;;;;;;;6.22;100.00;99958.28;4997671;28;20042;-68
2022/04/10 03:26:16;;;;;;;6.95;6.65;;;;;;;6.18;100.00;99946.44;5002747;28;20030;-68
2022/04/10 03:28:41;;;;;;;7.13;6.80;;;;;;;6.16;100.00;99920.22;5001256;28;20029;-67
2022/04/10 03:31:07;;;;;;;6.50;6.20;;;;;;;6.04;100.00;99938.16;5009546;28;20018;-67
2022/04/10 03:33:32;;;;;;;6.75;6.45;;;;;;;5.99;100.00;99948.34;5007506;28;20052;-68
2022/04/10 03:35:58;;;;;;;6.45;6.15;;;;;;;6.06;100.00;99956.41;4990420;28;20482;-67
2022/04/10 03:38:24;;;;;;;6.60;6.30;;;;;;;5.99;100.00;99942.25;4993481;28;20089;-67
2022/04/10 03:40:49;;;;;;;7.30;6.90;;;;;;;5.86;100.00;99950.53;4988896;28;20038;-67
2022/04/10 03:43:15;;;;;;;6.00;5.80;;;;;;;5.94;100.00;99969.03;4993430;28;20065;-67
2022/04/10 03:45:41;;;;;;;6.40;6.10;;;;;;;5.95;100.00;99961.97;4997020;28;20053;-67
2022/04/10 03:48:07;;;;;;;9.70;9.10;;;;;;;6.06;100.00;99959.06;4997276;28;20064;-68
2022/04/10 03:50:34;;;;;;;6.57;6.28;;;;;;;5.93;100.00;99950.78;5004680;28;20026;-67
2022/04/10 03:53:06;;;;;;;6.50;6.20;;;;;;;5.86;100.00;99944.47;5006855;28;20026;-68
2022/04/10 03:55:32;;;;;;;6.90;6.60;;;;;;;6.02;100.00;99942.78;4985158;28;20469;-68
2022/04/10 03:57:58;;;;;;;6.90;6.60;;;;;;;6.10;100.00;99944.59;4992220;28;20058;-67
2022/04/10 04:00:23;;;;;;;6.45;6.15;;;;;;;5.95;100.00;99946.16;4991124;28;20030;-67
2022/04/10 04:02:49;;;;;;;6.07;5.80;;;;;;;5.92;100.00;99954.41;4992369;28;20070;-68
2022/04/10 04:05:14;;;;;;;8.82;8.32;;;;;;;6.04;100.00;99969.75;4989613;28;20116;-69
2022/04/10 04:07:42;;;;;;;6.35;6.05;;;;;;;6.08;100.00;99988.69;5003661;28;20137;-69
2022/04/10 04:10:08;;;;;;;6.55;6.25;;;;;;;5.99;100.00;100000.16;5024340;28;20018;-67
2022/04/10 04:12:35;;;;;;;6.93;6.63;;;;;;;5.99;100.00;100002.81;4995421;28;20050;-69
2022/04/10 04:15:01;;;;;;;6.53;6.22;;;;;;;6.02;100.00;100016.50;5011896;28;20018;-68
2022/04/10 04:17:27;;;;;;;6.55;6.25;;;;;;;5.96;100.00;99995.22;5012290;28;20088;-67
2022/04/10 04:19:53;;;;;;;6.10;5.80;;;;;;;6.07;100.00;99984.41;4993981;28;20038;-67
2022/04/10 04:22:19;;;;;;;6.75;6.45;;;;;;;6.07;100.00;99972.06;4987636;28;20029;-68
2022/04/10 04:24:45;;;;;;;6.30;6.00;;;;;;;6.13;100.00;99967.97;5002798;28;20040;-67
2022/04/10 04:27:11;;;;;;;6.57;6.28;;;;;;;6.16;100.00;99975.53;4992915;28;20046;-67
2022/04/10 04:29:37;;;;;;;6.35;6.05;;;;;;;6.20;100.00;99968.97;4994582;28;20445;-67
2022/04/10 04:32:03;;;;;;;6.80;6.50;;;;;;;6.21;100.00;99965.34;4991211;28;20022;-67
2022/04/10 04:34:29;;;;;;;6.82;6.53;;;;;;;6.20;100.00;99971.63;5009356;28;20029;-67
2022/04/10 04:36:54;;;;;;;6.43;6.13;;;;;;;6.24;100.00;99993.19;5024258;28;20093;-67
2022/04/10 04:39:20;;;;;;;6.53;6.22;;;;;;;6.24;100.00;99988.75;4981540;28;20132;-67
2022/04/10 04:41:46;;;;;;;6.30;6.00;;;;;;;6.21;100.00;99989.06;5004432;28;20025;-68
2022/04/10 04:44:13;;;;;;;6.43;6.13;;;;;;;6.31;100.00;99981.84;5042687;28;20057;-68
2022/04/10 04:46:38;;;;;;;6.60;6.30;;;;;;;6.20;100.00;99978.69;4996348;28;20500;-68
2022/04/10 04:49:04;;;;;;;6.53;6.22;;;;;;;6.22;100.00;99982.81;4981860;28;20038;-68
2022/04/10 04:51:34;;;;;;;6.35;6.05;;;;;;;6.26;100.00;99988.59;4987123;28;20100;-68
2022/04/10 04:54:01;;;;;;;6.40;6.10;;;;;;;6.21;100.00;99978.53;4991994;28;20041;-68
2022/04/10 04:56:26;;;;;;;6.00;5.80;;;;;;;6.21;100.00;99978.53;4991604;28;20030;-67
2022/04/10 04:58:52;;;;;;;6.00;5.80;;;;;;;6.36;100.00;99970.84;5000689;28;20092;-69
2022/04/10 05:01:17;;;;;;;6.55;6.25;;;;;;;6.26;100.00;99964.88;5011787;28;20037;-69
2022/04/10 05:03:43;;;;;;;6.38;6.07;;;;;;;6.32;100.00;99975.59;4999532;28;20039;-68
2022/04/10 05:06:08;;;;;;;6.78;6.40;;;;;;;6.30;100.00;99990.72;4991865;28;20426;-68
2022/04/10 05:08:34;;;;;;;6.30;6.00;;;;;;;6.21;100.00;99994.31;4991157;28;20033;-67
2022/04/10 05:10:59;;;;;;;6.47;6.18;;;;;;;6.19;100.00;100003.38;4991505;28;20027;-68
2022/04/10 05:13:26;;;;;;;6.60;6.30;;;;;;;6.26;100.00;100004.41;4991915;28;20379;-67
2022/04/10 05:15:51;;;;;;;6.32;6.03;;;;;;;6.37;100.00;100012.00;5002318;28;20385;-67
2022/04/10 05:18:19;;;;;;;6.30;6.00;;;;;;;6.34;100.00;100023.69;4994427;28;20026;-68
2022/04/10 05:20:47;;;;;;;6.35;6.05;;;;;;;6.25;100.00;100018.56;5027553;28;20030;-68
2022/04/10 05:23:17;;;;;;;6.30;6.00;;;;;;;6.32;100.00;100014.31;4995971;28;20605;-67
2022/04/10 05:25:43;;;;;;;6.55;6.25;;;;;;;6.38;100.00;100008.38;4996046;28;20049;-68
2022/04/10 05:28:08;;;;;;;6.38;6.07;;;;;;;6.41;100.00;100008.06;4995982;28;20482;-67
2022/04/10 05:30:34;;;;;;;6.90;6.60;;;;;;;6.34;100.00;100018.41;4993941;28;20125;-67
2022/04/10 05:33:00;;;;;;;6.75;6.45;;;;;;;6.33;100.00;100013.31;4997064;28;20022;-67
2022/04/10 05:35:25;;;;;;;7.13;6.78;;;;;;;6.29;100.00;100009.34;5012834;28;20030;-68
2022/04/10 05:37:51;;;;;;;6.57;6.28;;;;;;;6.43;100.00;100007.91;5007233;28;20052;-67
2022/04/10 05:40:17;;;;;;;6.40;6.10;;;;;;;6.43;100.00;100007.91;5009839;28;20441;-69
2022/04/10 05:42:43;;;;;;;6.47;6.18;;;;;;;6.44;100.00;100006.91;5000800;28;20025;-68
2022/04/10 05:45:10;;;;;;;6.60;6.30;;;;;;;6.37;100.00;99999.63;5046492;28;20576;-68
2022/04/10 05:47:39;;;;;;;6.70;6.40;;;;;;;6.46;100.00;100018.09;5014736;28;20436;-68
2022/04/10 05:50:09;;;;;;;6.22;5.93;;;;;;;6.46;100.00;100013.66;5000791;28;20057;-69
2022/04/10 05:52:40;;;;;;;6.45;6.15;;;;;;;6.52;100.00;100015.66;4997222;28;20038;-69
2022/04/10 05:55:07;;;;;;;7.55;7.15;;;;;;;6.59;100.00;100014.03;5026520;28;20039;-68
2022/04/10 05:57:34;;;;;;;6.22;5.93;;;;;;;6.60;100.00;99999.03;4995331;28;20032;-69
2022/04/10 06:00:00;;;;;;;5.95;5.75;;;;;;;6.53;100.00;100005.94;4994166;28;20026;-68
2022/04/10 06:02:26;;;;;;;6.70;6.40;;;;;;;6.62;100.00;100012.91;4995302;28;20089;-67
2022/04/10 06:04:51;;;;;;;6.70;6.40;;;;;;;6.51;100.00;100011.38;4987189;28;20031;-67
2022/04/10 06:07:16;;;;;;;6.32;6.03;;;;;;;6.74;100.00;100013.38;5004520;28;20117;-67
2022/04/10 06:09:42;;;;;;;6.68;6.38;;;;;;;6.57;100.00;100002.00;4993785;28;20062;-68
2022/04/10 06:12:09;;;;;;;7.05;6.75;;;;;;;6.76;100.00;100012.25;5002378;28;20025;-68
2022/04/10 06:14:35;;;;;;;6.53;6.22;;;;;;;6.73;100.00;100009.94;4997808;28;20038;-68
2022/04/10 06:17:00;;;;;;;9.02;8.52;;;;;;;6.64;100.00;100009.09;4989590;28;20111;-68
2022/04/10 06:19:27;;;;;;;7.47;7.07;;;;;;;6.78;100.00;100012.91;5000167;28;20101;-68
2022/04/10 06:21:53;;;;;;;6.78;6.47;;;;;;;6.85;100.00;100006.00;4996695;28;20034;-67
2022/04/10 06:24:20;;;;;;;6.50;6.20;;;;;;;6.76;100.00;100007.00;5035913;28;20057;-68
2022/04/10 06:26:48;;;;;;;7.82;7.43;;;;;;;6.74;100.00;100008.94;4988787;28;20050;-68
2022/04/10 06:29:14;;;;;;;7.07;6.78;;;;;;;6.76;100.00;100027.25;4991982;28;20109;-65
2022/04/10 06:31:39;;;;;;;6.72;6.43;;;;;;;6.69;100.00;100015.72;5000895;28;20120;-66
2022/04/10 06:34:05;;;;;;;6.65;6.35;;;;;;;6.66;100.00;100022.13;5022047;28;20060;-67
2022/04/10 06:36:30;;;;;;;6.20;5.90;;;;;;;6.92;100.00;100012.28;4990867;28;20030;-67
2022/04/10 06:38:56;;;;;;;6.90;6.60;;;;;;;6.99;100.00;100009.00;4999146;28;20029;-68
2022/04/10 06:41:22;;;;;;;7.15;6.80;;;;;;;6.86;100.00;100005.00;4998185;28;20045;-68
2022/04/10 06:43:47;;;;;;;6.57;6.28;;;;;;;6.73;100.00;99999.38;4996347;28;20312;-66
2022/04/10 06:46:12;;;;;;;7.15;6.80;;;;;;;6.90;100.00;100001.06;5000003;28;20020;-68
2022/04/10 06:48:39;;;;;;;6.70;6.40;;;;;;;6.91;100.00;99992.19;4993342;28;20548;-67
2022/04/10 06:51:05;;;;;;;7.00;6.70;;;;;;;7.00;100.00;99995.63;4991119;28;20018;-68
2022/04/10 06:53:30;;;;;;;6.97;6.68;;;;;;;6.77;100.00;99994.63;5003916;28;20026;-67
2022/04/10 06:55:56;;;;;;;7.05;6.75;;;;;;;6.65;100.00;99999.38;4991491;28;20021;-66
2022/04/10 06:58:22;;;;;;;6.50;6.20;;;;;;;6.50;100.00;100007.09;4990048;28;20047;-68
2022/04/10 07:00:52;;;;;;;6.95;6.63;;;;;;;6.65;100.00;100008.09;4990657;28;20033;-68
2022/04/10 07:03:17;;;;;;;6.70;6.40;;;;;;;6.57;100.00;100008.09;4992986;28;20029;-68
2022/04/10 07:05:43;;;;;;;6.93;6.63;;;;;;;6.51;100.00;100019.28;5002900;28;20030;-68
2022/04/10 07:08:09;;;;;;;6.68;6.38;;;;;;;6.60;100.00;100022.75;4992312;28;20029;-67
2022/04/10 07:10:36;;;;;;;6.80;6.50;;;;;;;6.72;100.00;100025.91;4993475;28;20034;-67
2022/04/10 07:13:06;;;;;;;7.57;7.18;;;;;;;6.49;100.00;100041.50;4992705;28;20026;-68
2022/04/10 07:15:31;;;;;;;6.53;6.22;;;;;;;6.48;100.00;100061.78;5001072;28;20509;-68
2022/04/10 07:17:58;;;;;;;6.75;6.45;;;;;;;6.23;100.00;100045.03;4993754;28;20030;-67
2022/04/10 07:20:24;;;;;;;6.80;6.50;;;;;;;6.55;100.00;100056.69;4994564;28;20022;-68
2022/04/10 07:25:34;;;;;;;7.28;6.88;;;;;;;6.51;100.00;100039.53;4993200;28;20092;-68
2022/04/10 07:28:00;;;;;;;6.15;5.85;;;;;;;6.60;100.00;100033.28;4984397;28;20027;-68
2022/04/10 07:30:25;;;;;;;7.57;7.18;;;;;;;6.50;100.00;100043.16;4978911;28;20030;-69
2022/04/10 07:32:57;;;;;;;6.35;6.05;;;;;;;6.63;100.00;100047.00;4999826;28;20033;-68
2022/04/10 07:35:22;;;;;;;6.57;6.28;;;;;;;6.59;100.00;100061.47;5043726;28;20030;-69
2022/04/10 07:37:48;;;;;;;6.57;6.28;;;;;;;6.55;100.00;100056.69;4997431;28;20030;-68
2022/04/10 07:40:15;;;;;;;6.78;6.47;;;;;;;6.22;100.00;100063.63;4985780;28;20125;-68
2022/04/10 07:42:43;;;;;;;6.40;6.10;;;;;;;6.50;100.00;100056.34;4998253;28;20026;-70
2022/04/10 07:45:10;;;;;;;6.57;6.28;;;;;;;6.60;100.00;100054.38;5033602;28;20532;-69
2022/04/10 07:47:36;;;;;;;6.45;6.15;;;;;;;6.42;100.00;100051.03;4991856;28;20030;-68
2022/04/10 07:50:02;;;;;;;6.28;5.97;;;;;;;6.31;100.00;100066.13;4993561;28;20022;-68
2022/04/10 07:52:28;;;;;;;7.63;7.22;;;;;;;6.30;100.00;100067.13;4995715;28;20459;-66
2022/04/10 07:54:53;;;;;;;6.63;6.32;;;;;;;6.42;100.00;100085.28;4994464;28;20030;-66
2022/04/10 07:57:19;;;;;;;6.50;6.20;;;;;;;6.32;100.00;100088.06;4974220;28;20081;-68
2022/04/10 07:59:45;;;;;;;7.03;6.72;;;;;;;6.45;100.00;100085.78;4997326;28;20409;-67
2022/04/10 08:02:11;;;;;;;7.40;7.00;;;;;;;6.50;100.00;100082.69;5002713;28;20030;-69
2022/04/10 08:04:38;;;;;;;6.10;5.80;;;;;;;6.33;100.00;100090.53;5012489;28;20036;-68
2022/04/10 08:07:04;;;;;;;7.05;6.72;;;;;;;6.34;100.00;100107.16;4989436;28;20035;-68
2022/04/10 08:09:30;;;;;;;6.30;6.00;;;;;;;6.32;100.00;100123.13;4976026;28;20065;-69
2022/04/10 08:11:55;;;;;;;6.80;6.50;;;;;;;6.56;100.00;100138.22;4990952;28;20472;-69
2022/04/10 08:14:21;;;;;;;6.32;6.03;;;;;;;6.48;100.00;100127.66;5021523;28;20548;-69
2022/04/10 08:16:47;;;;;;;6.65;6.35;;;;;;;6.52;100.00;100131.59;4992881;28;20052;-68
2022/04/10 08:19:12;;;;;;;6.10;5.80;;;;;;;6.41;100.00;100115.25;4992613;28;20022;-67
2022/04/10 08:21:38;;;;;;;7.57;7.18;;;;;;;6.26;100.00;100115.84;4992450;28;20034;-68
2022/04/10 08:24:04;;;;;;;6.38;6.07;;;;;;;6.06;100.00;100117.88;4983922;28;20077;-66
2022/04/10 08:26:29;;;;;;;6.70;6.40;;;;;;;6.18;100.00;100118.44;4985035;28;20051;-67
2022/04/10 08:28:55;;;;;;;6.57;6.28;;;;;;;6.18;100.00;100114.97;4994067;28;20396;-67
2022/04/10 08:31:20;;;;;;;6.72;6.43;;;;;;;6.33;100.00;100110.78;4990753;28;20019;-69
2022/04/10 08:33:46;;;;;;;6.32;6.03;;;;;;;6.13;100.00;100114.63;5003546;28;20162;-68
2022/04/10 08:36:12;;;;;;;6.60;6.30;;;;;;;6.11;100.00;100116.59;4997782;28;20037;-67
2022/04/10 08:38:38;;;;;;;6.30;6.00;;;;;;;6.22;100.00;100111.03;4987319;28;20030;-68
2022/04/10 08:41:05;;;;;;;6.40;6.10;;;;;;;6.23;100.00;100116.16;5006892;28;20026;-68
2022/04/10 08:43:30;;;;;;;6.85;6.55;;;;;;;6.42;100.00;100119.53;5000840;28;20025;-67
2022/04/10 08:45:57;;;;;;;6.40;6.10;;;;;;;6.28;100.00;100134.13;4994227;28;20040;-68
2022/04/10 08:48:26;;;;;;;6.22;5.93;;;;;;;6.50;100.00;100130.94;5028665;28;20027;-69
2022/04/10 08:50:57;;;;;;;6.07;5.78;;;;;;;6.26;100.00;100123.75;4995357;28;20398;-69
2022/04/10 08:53:24;;;;;;;6.30;6.00;;;;;;;6.57;100.00;100121.41;4992891;28;20393;-67
2022/04/10 08:55:50;;;;;;;6.40;6.10;;;;;;;6.42;100.00;100119.53;5011972;28;20032;-68
2022/04/10 08:58:17;;;;;;;6.45;6.15;;;;;;;6.45;100.00;100124.47;5011796;28;20095;-69
2022/04/10 09:00:43;;;;;;;6.20;5.90;;;;;;;6.27;100.00;100106.97;5012063;28;20033;-67
2022/04/10 09:03:09;;;;;;;6.13;5.82;;;;;;;6.48;100.00;100134.72;5011615;28;20022;-68
2022/04/10 09:05:34;;;;;;;6.63;6.32;;;;;;;6.40;100.00;100122.34;5039570;28;20037;-68
2022/04/10 09:08:13;;;;;;;5.90;5.70;;;;;;;6.33;100.00;100116.06;4971544;28;20023;-69
2022/04/10 09:11:00;;;;;;;6.63;6.32;;;;;;;6.36;100.00;100113.91;4988244;28;20401;-67
2022/04/10 09:13:26;;;;;;;6.05;5.75;;;;;;;6.45;100.00;100127.13;5011059;28;20073;-68
2022/04/10 09:15:59;;;;;;;5.80;5.60;;;;;;;6.49;100.00;100142.47;5003501;28;20651;-69
2022/04/10 09:18:24;;;;;;;6.35;6.05;;;;;;;6.51;100.00;100129.13;5003514;28;20038;-69
2022/04/10 09:21:06;;;;;;;6.50;6.20;;;;;;;6.42;100.00;100125.63;5014580;28;20022;-70
2022/04/10 09:23:31;;;;;;;6.57;6.28;;;;;;;6.63;100.00;100128.69;4988778;28;20022;-67
2022/04/10 09:25:58;;;;;;;6.25;5.95;;;;;;;6.82;100.00;100121.50;4992975;28;20033;-67
2022/04/10 09:28:43;;;;;;;6.43;6.13;;;;;;;6.77;100.00;100123.81;5023089;28;20113;-66
2022/04/10 09:31:32;;;;;;;6.35;6.05;;;;;;;6.80;100.00;100131.38;5004789;28;20113;-66
2022/04/10 09:34:03;;;;;;;5.95;5.70;;;;;;;6.80;100.00;100124.28;4990702;28;20043;-68
2022/04/10 09:36:33;;;;;;;6.85;6.55;;;;;;;7.14;100.00;100121.59;5001436;28;20038;-67
2022/04/10 09:38:59;;;;;;;6.00;5.75;;;;;;;7.05;100.00;100121.72;4994943;28;20076;-67
2022/04/10 09:41:25;;;;;;;5.90;5.70;;;;;;;7.14;100.00;100131.31;4994530;28;20418;-67
2022/04/10 09:43:51;;;;;;;7.35;6.95;;;;;;;6.89;100.00;100123.31;4998911;28;20026;-67
2022/04/10 09:46:16;;;;;;;7.50;7.10;;;;;;;6.65;100.00;100121.44;5005669;28;20048;-67
2022/04/10 09:48:43;;;;;;;6.82;6.53;;;;;;;6.63;100.00;100107.59;4991401;28;20026;-66
2022/04/10 09:51:11;;;;;;;6.28;5.97;;;;;;;6.55;100.00;100109.41;5007519;28;20057;-66
2022/04/10 09:53:37;;;;;;;6.38;6.07;;;;;;;6.64;100.00;100125.06;4995457;28;20405;-67
2022/04/10 09:56:04;;;;;;;7.28;6.88;;;;;;;6.55;100.00;100120.75;4995198;28;20034;-66
2022/04/10 09:58:34;;;;;;;6.85;6.55;;;;;;;6.60;100.00;100138.72;5002031;28;20232;-66
2022/04/10 10:01:03;;;;;;;6.25;5.95;;;;;;;6.28;100.00;100134.94;4993390;28;20033;-66
2022/04/10 10:03:30;;;;;;;6.63;6.32;;;;;;;6.69;100.00;100135.16;4999212;28;20048;-66
2022/04/10 10:05:58;;;;;;;6.82;6.53;;;;;;;6.61;100.00;100130.66;4999447;28;20510;-66
2022/04/10 10:08:24;;;;;;;6.57;6.28;;;;;;;7.42;100.00;100127.41;5008393;28;20528;-63
2022/04/10 10:10:50;;;;;;;6.38;6.07;;;;;;;7.23;100.00;100125.06;4995696;28;20030;-64
2022/04/10 10:13:16;;;;;;;6.32;6.03;;;;;;;7.37;100.00;100111.22;5004475;28;20105;-65
2022/04/10 10:15:43;;;;;;;6.25;5.95;;;;;;;7.15;100.00;100104.75;5001404;28;20050;-67
2022/04/10 10:18:11;;;;;;;6.22;5.93;;;;;;;7.03;100.00;100102.59;5001432;28;20025;-65
2022/04/10 10:20:38;;;;;;;6.30;6.00;;;;;;;6.77;100.00;100113.25;4995607;28;20033;-64
2022/04/10 10:23:08;;;;;;;6.72;6.43;;;;;;;6.93;100.00;100111.47;5002663;28;20056;-67
2022/04/10 10:25:46;;;;;;;6.10;5.80;;;;;;;7.28;100.00;100114.03;4992181;28;20117;-67
2022/04/10 10:28:36;;;;;;;6.50;6.20;;;;;;;7.14;100.00;100112.84;4990226;28;20057;-68
2022/04/10 10:31:20;;;;;;;6.30;6.00;;;;;;;7.11;100.00;100108.72;4988928;28;20030;-68
2022/04/10 10:34:00;;;;;;;6.53;6.22;;;;;;;7.08;100.00;100105.59;4997862;28;20533;-67
2022/04/10 10:36:27;;;;;;;6.93;6.63;;;;;;;7.00;100.00;100103.75;4994743;28;20030;-73
2022/04/10 10:38:54;;;;;;;6.80;6.50;;;;;;;6.60;100.00;100104.44;4983256;28;20375;-65
2022/04/10 10:41:19;;;;;;;7.93;7.53;;;;;;;6.68;100.00;100099.19;4974814;28;20026;-66
2022/04/10 10:43:46;;;;;;;6.60;6.30;;;;;;;6.63;100.00;100099.69;4976431;28;20078;-66
2022/04/10 10:46:33;;;;;;;6.80;6.50;;;;;;;6.50;100.00;100101.94;4975045;28;20027;-66
2022/04/10 10:49:17;;;;;;;7.13;6.82;;;;;;;6.27;100.00;100114.88;4982085;28;20022;-65
2022/04/10 10:51:44;;;;;;;6.40;6.10;;;;;;;6.29;100.00;100097.09;4993425;28;20407;-65
2022/04/10 10:54:25;;;;;;;6.18;5.88;;;;;;;6.36;100.00;100107.81;5010488;28;20076;-65
2022/04/10 10:56:51;;;;;;;6.10;5.80;;;;;;;6.44;100.00;100107.84;4994162;28;20552;-67
2022/04/10 10:59:41;;;;;;;6.40;6.10;;;;;;;6.33;100.00;100108.16;4982383;28;20133;-66
2022/04/10 11:02:12;;;;;;;7.15;6.80;;;;;;;5.90;100.00;100104.56;4975936;28;20031;-65
2022/04/10 11:04:52;;;;;;;7.10;6.72;;;;;;;6.24;100.00;100119.59;4993439;28;20034;-65
2022/04/10 11:07:18;;;;;;;5.80;5.60;;;;;;;6.25;100.00;100116.00;4992661;28;20541;-65
2022/04/10 11:10:10;;;;;;;5.88;5.68;;;;;;;6.28;100.00;100111.25;4994313;28;20106;-67
2022/04/10 11:12:59;;;;;;;5.90;5.70;;;;;;;6.21;100.00;100123.38;4988461;28;20475;-67
2022/04/10 11:15:29;;;;;;;6.30;6.00;;;;;;;5.89;100.00;100110.00;4977882;28;20117;-66
2022/04/10 11:17:55;;;;;;;6.13;5.82;;;;;;;6.04;100.00;100117.22;4993949;28;20077;-66
2022/04/10 11:20:24;;;;;;;6.57;6.28;;;;;;;6.28;100.00;100116.50;4993844;28;20022;-66
2022/04/10 11:22:52;;;;;;;6.90;6.60;;;;;;;6.33;100.00;100122.16;4992954;28;20091;-66
2022/04/10 11:25:28;;;;;;;6.50;6.20;;;;;;;6.29;100.00;100112.06;4993642;28;20033;-65
2022/04/10 11:28:02;;;;;;;6.20;5.90;;;;;;;5.90;100.00;100117.75;4997397;28;20559;-66
2022/04/10 11:30:31;;;;;;;6.15;5.85;;;;;;;6.43;100.00;100122.00;5013457;28;20025;-65
2022/04/10 11:32:56;;;;;;;6.70;6.40;;;;;;;6.42;100.00;100132.72;5037579;28;20114;-66